Time;durP1;ratioP1;P1;durP2;ratioP2;P2;SDS_P1;SDS_P2;PMS_P1;PMS_P2;Temp;Humidity;BMP_temperature;BMP_pressure;BME280_temperature;BME280_humidity;BME280_pressure;Samples;Min_cycle;Max_cycle;Signal;HPM_P1;HPM_P2
2023/03/06 00:01:26;;;;;;;29.23;11.90;;;;;;;4.06;48.80;99726.41;124926;1098;104192;-75
2023/03/06 00:03:59;;;;;;;28.83;12.57;;;;;;;4.02;47.94;99721.87;124935;1099;104275;-75
2023/03/06 00:06:30;;;;;;;25.83;11.77;;;;;;;4.00;48.36;99720.91;124931;1099;102023;-75
2023/03/06 00:09:02;;;;;;;25.73;11.27;;;;;;;3.99;48.59;99726.91;124885;1098;104932;-75
2023/03/06 00:11:33;;;;;;;26.90;11.90;;;;;;;3.97;48.23;99719.05;125028;1099;102110;-75
2023/03/06 00:14:04;;;;;;;27.37;11.67;;;;;;;3.96;48.42;99723.36;124467;1099;104342;-75
2023/03/06 00:16:35;;;;;;;27.07;12.47;;;;;;;3.96;47.91;99722.48;124904;1099;104238;-75
2023/03/06 00:19:07;;;;;;;26.03;12.53;;;;;;;3.96;48.97;99725.07;124845;1099;101924;-75
2023/03/06 00:21:40;;;;;;;27.37;12.17;;;;;;;3.96;48.37;99712.09;124944;1099;104341;-75
2023/03/06 00:24:11;;;;;;;28.60;12.33;;;;;;;3.95;48.58;99711.18;124885;1099;104277;-75
2023/03/06 00:26:42;;;;;;;25.93;12.00;;;;;;;3.95;48.52;99705.98;124992;1098;104351;-75
2023/03/06 00:29:13;;;;;;;26.40;12.13;;;;;;;3.95;48.36;99699.92;124482;1100;104192;-75
2023/03/06 00:31:46;;;;;;;27.13;12.03;;;;;;;3.95;48.60;99698.20;125051;1099;104249;-75
2023/03/06 00:34:18;;;;;;;26.90;11.77;;;;;;;3.96;48.70;99699.99;124909;1099;104236;-75
2023/03/06 00:36:50;;;;;;;28.93;12.97;;;;;;;3.95;48.50;99699.92;124437;1102;104162;-75
2023/03/06 00:39:22;;;;;;;27.77;12.57;;;;;;;3.93;48.45;99689.45;124854;1099;104271;-75
2023/03/06 00:41:54;;;;;;;27.20;10.67;;;;;;;3.94;48.53;99693.84;124780;1102;101906;-75
2023/03/06 00:44:25;;;;;;;26.70;10.63;;;;;;;3.93;48.40;99694.65;124868;1099;104169;-75
2023/03/06 00:46:56;;;;;;;23.73;10.43;;;;;;;3.91;48.22;99685.91;125224;1099;101865;-75
2023/03/06 00:49:28;;;;;;;22.87;9.97;;;;;;;3.88;48.15;99688.35;124829;1097;104269;-75
2023/03/06 00:51:59;;;;;;;25.10;9.90;;;;;;;3.86;48.25;99683.89;124965;1099;104176;-75
2023/03/06 00:54:31;;;;;;;25.23;10.13;;;;;;;3.84;47.96;99690.72;124958;1099;104217;-75
2023/03/06 00:57:02;;;;;;;24.43;10.10;;;;;;;3.83;47.82;99699.31;124923;1099;104208;-75
2023/03/06 00:59:33;;;;;;;22.60;9.50;;;;;;;3.83;48.24;99694.12;124848;1099;102172;-75
2023/03/06 01:02:05;;;;;;;24.03;9.67;;;;;;;3.81;48.14;99696.64;125641;1098;104070;-75
2023/03/06 01:04:36;;;;;;;25.67;9.93;;;;;;;3.80;48.08;99692.25;124391;1099;104195;-76
2023/03/06 01:07:08;;;;;;;25.73;10.27;;;;;;;3.82;48.51;99695.84;125662;1099;104169;-75
2023/03/06 01:09:40;;;;;;;24.17;10.57;;;;;;;3.84;47.87;99691.59;124926;1098;104169;-75
2023/03/06 01:12:11;;;;;;;25.57;10.47;;;;;;;3.86;48.50;99691.67;124904;1099;104744;-75
2023/03/06 01:14:42;;;;;;;24.57;10.40;;;;;;;3.89;47.80;99694.42;124904;1099;104089;-76
2023/03/06 01:17:14;;;;;;;24.70;10.00;;;;;;;3.88;48.37;99698.73;124498;1099;104242;-75
2023/03/06 01:19:48;;;;;;;22.07;10.08;;;;;;;3.85;48.05;99689.88;124844;1099;104176;-75
2023/03/06 01:22:19;;;;;;;23.07;9.87;;;;;;;3.83;48.67;99695.00;125863;1099;101952;-75
2023/03/06 01:24:50;;;;;;;26.50;11.13;;;;;;;3.84;48.61;99698.50;124892;1099;101916;-75
2023/03/06 01:27:21;;;;;;;24.83;9.97;;;;;;;3.86;47.82;99694.27;124997;1099;104210;-75
2023/03/06 01:29:53;;;;;;;22.53;9.93;;;;;;;3.86;48.61;99696.87;124914;1099;104375;-75
2023/03/06 01:32:24;;;;;;;23.53;9.60;;;;;;;3.86;47.63;99695.15;125028;1099;104172;-75
2023/03/06 01:34:55;;;;;;;24.73;9.97;;;;;;;3.85;48.10;99698.58;125036;1099;104175;-75
2023/03/06 01:37:27;;;;;;;23.87;9.90;;;;;;;3.86;48.35;99700.34;125958;1098;101906;-75
2023/03/06 01:39:58;;;;;;;22.30;9.47;;;;;;;3.86;48.26;99704.66;125005;1099;104133;-75
2023/03/06 01:42:29;;;;;;;24.13;9.60;;;;;;;3.85;47.97;99702.86;124988;1099;104181;-75
2023/03/06 01:45:03;;;;;;;23.13;9.13;;;;;;;3.87;48.72;99703.84;124935;1099;104351;-75
2023/03/06 01:47:33;;;;;;;;;;;;;;;3.88;48.12;99705.61;125119;1098;104230;-75
2023/03/06 01:50:07;;;;;;;22.77;9.20;;;;;;;3.91;48.26;99700.56;125049;1099;102025;-75
2023/03/06 01:52:45;;;;;;;24.20;9.87;;;;;;;3.93;48.22;99693.77;126225;1098;101858;-75
2023/03/06 01:55:20;;;;;;;21.17;9.10;;;;;;;3.95;48.12;99698.20;125016;1099;101927;-75
2023/03/06 01:57:53;;;;;;;22.93;9.93;;;;;;;3.96;48.41;99694.80;125012;1099;104171;-75
2023/03/06 02:00:27;;;;;;;24.17;10.30;;;;;;;4.00;48.28;99692.36;124510;1099;104268;-75
2023/03/06 02:03:05;;;;;;;21.80;9.17;;;;;;;4.02;48.86;99690.72;126159;1098;104165;-75
2023/03/06 02:05:37;;;;;;;22.60;9.80;;;;;;;4.03;48.40;99693.38;124956;1099;104188;-75
2023/03/06 02:08:10;;;;;;;22.63;9.13;;;;;;;4.05;48.15;99693.46;125004;1099;104208;-75
2023/03/06 02:10:57;;;;;;;24.23;9.53;;;;;;;4.05;48.20;99696.05;124899;1099;102805;-75
2023/03/06 02:13:28;;;;;;;22.63;10.03;;;;;;;4.02;48.20;99691.62;124999;1099;102209;-75
2023/03/06 02:16:03;;;;;;;23.63;9.80;;;;;;;4.03;48.45;99697.70;124911;1099;104179;-75
2023/03/06 02:18:35;;;;;;;22.97;9.30;;;;;;;4.03;48.91;99692.50;125032;1099;104361;-75
2023/03/06 02:21:08;;;;;;;24.47;9.43;;;;;;;4.04;48.82;99696.89;124903;1099;104175;-75
2023/03/06 02:23:50;;;;;;;20.87;8.33;;;;;;;4.05;48.05;99699.56;124986;1099;104227;-75
2023/03/06 02:26:23;;;;;;;24.00;8.20;;;;;;;4.05;48.20;99701.25;124911;1099;104246;-75
2023/03/06 02:28:56;;;;;;;22.60;8.53;;;;;;;4.04;48.72;99697.77;125047;1099;104182;-75
2023/03/06 02:31:29;;;;;;;26.67;8.00;;;;;;;4.06;48.31;99705.64;124876;1099;104277;-75
2023/03/06 02:34:33;;;;;;;21.70;7.15;;;;;;;4.06;48.16;99709.11;124500;1102;102815;-75
2023/03/06 02:37:08;;;;;;;17.97;7.43;;;;;;;4.07;48.30;99710.02;124520;1102;104278;-75
2023/03/06 02:39:45;;;;;;;19.40;7.30;;;;;;;4.08;48.60;99711.78;124992;1099;101926;-76
2023/03/06 02:42:23;;;;;;;16.37;6.43;;;;;;;4.09;47.76;99713.58;124584;1099;107154;-76
2023/03/06 02:44:55;;;;;;;18.60;6.90;;;;;;;4.06;48.36;99714.30;124526;1099;104335;-75
2023/03/06 02:47:27;;;;;;;22.40;7.00;;;;;;;4.05;48.19;99712.55;125031;1099;104245;-76
2023/03/06 02:49:58;;;;;;;19.63;6.57;;;;;;;4.06;48.16;99710.83;124511;1099;102322;-76
2023/03/06 02:52:30;;;;;;;18.93;7.17;;;;;;;4.06;48.22;99711.70;124454;1102;118080;-75
2023/03/06 02:55:01;;;;;;;21.93;7.40;;;;;;;4.05;48.41;99711.63;124844;1099;104179;-75
2023/03/06 02:57:32;;;;;;;17.00;6.20;;;;;;;4.03;48.17;99708.08;124972;1099;104230;-75
2023/03/06 03:00:04;;;;;;;18.80;6.45;;;;;;;4.03;48.25;99706.36;124996;1099;104312;-75
2023/03/06 03:02:36;;;;;;;41.23;9.23;;;;;;;4.05;47.92;99706.44;124987;1099;101813;-75
2023/03/06 03:05:10;;;;;;;130.20;21.50;;;;;;;4.05;48.72;99711.63;124471;1099;101983;-75
2023/03/06 03:07:44;;;;;;;97.67;17.13;;;;;;;4.05;48.55;99707.35;124531;1099;104165;-75
2023/03/06 03:10:16;;;;;;;40.50;10.10;;;;;;;4.05;48.64;99707.35;124992;1099;101846;-75
2023/03/06 03:12:49;;;;;;;20.23;7.37;;;;;;;4.04;48.73;99710.75;126031;1098;111615;-75
2023/03/06 03:15:21;;;;;;;21.73;7.47;;;;;;;4.07;48.44;99704.83;124480;1102;104262;-75
2023/03/06 03:17:53;;;;;;;17.43;7.30;;;;;;;4.06;48.71;99706.52;125223;1102;102051;-76
2023/03/06 03:20:25;;;;;;;29.90;7.90;;;;;;;4.06;48.86;99698.73;124867;1099;104255;-75
2023/03/06 03:22:56;;;;;;;21.60;7.50;;;;;;;4.09;48.16;99698.00;124503;1099;104169;-75
2023/03/06 03:25:28;;;;;;;19.83;7.33;;;;;;;4.09;48.86;99703.19;124403;1099;102195;-75
2023/03/06 03:28:01;;;;;;;18.60;6.90;;;;;;;4.09;48.68;99698.00;124492;1099;104201;-75
2023/03/06 03:30:34;;;;;;;19.87;7.42;;;;;;;4.10;49.02;99705.86;124945;1099;101996;-75
2023/03/06 03:33:06;;;;;;;18.50;6.93;;;;;;;4.10;48.36;99695.48;124474;1100;104361;-75
2023/03/06 03:35:37;;;;;;;17.27;7.00;;;;;;;4.11;49.05;99696.36;124926;1099;104252;-75
2023/03/06 03:38:08;;;;;;;20.17;7.23;;;;;;;4.11;49.49;99693.76;125030;1099;104188;-75
2023/03/06 03:40:41;;;;;;;19.73;7.43;;;;;;;4.11;49.62;99701.55;124494;1099;104179;-76
2023/03/06 03:43:13;;;;;;;19.45;7.40;;;;;;;4.11;49.49;99691.16;126014;1098;104230;-75
2023/03/06 03:45:44;;;;;;;21.47;7.27;;;;;;;4.11;49.14;99686.88;124895;1098;101891;-75
2023/03/06 03:48:16;;;;;;;19.27;7.73;;;;;;;4.11;49.11;99696.36;124881;1099;102007;-75
2023/03/06 03:50:47;;;;;;;18.63;7.23;;;;;;;4.11;49.78;99691.16;124926;1098;101909;-75
2023/03/06 03:53:19;;;;;;;17.50;7.07;;;;;;;4.12;49.22;99687.77;124910;1099;101829;-75
2023/03/06 03:55:51;;;;;;;19.85;7.60;;;;;;;4.12;49.14;99696.43;124490;1100;101967;-75
2023/03/06 03:58:23;;;;;;;18.10;7.17;;;;;;;4.12;48.63;99693.84;124443;1102;104303;-75
2023/03/06 04:00:54;;;;;;;19.13;7.60;;;;;;;4.12;49.70;99692.95;124504;1102;102224;-75
2023/03/06 04:03:25;;;;;;;28.57;8.20;;;;;;;4.12;49.80;99688.64;124571;1099;101941;-75
2023/03/06 04:05:57;;;;;;;19.93;8.00;;;;;;;4.13;49.26;99692.15;124563;1102;104354;-75
2023/03/06 04:08:29;;;;;;;19.33;7.53;;;;;;;4.16;49.06;99693.98;124520;1102;104456;-76
2023/03/06 04:11:00;;;;;;;17.73;7.17;;;;;;;4.16;49.36;99694.89;124809;1099;104268;-76
2023/03/06 04:13:32;;;;;;;21.93;7.67;;;;;;;4.14;49.20;99687.03;124463;1099;104255;-76
2023/03/06 04:16:03;;;;;;;17.40;7.33;;;;;;;4.14;49.71;99697.42;124936;1099;101897;-76
2023/03/06 04:18:36;;;;;;;17.77;7.87;;;;;;;4.12;49.33;99692.95;124987;1099;101839;-75
2023/03/06 04:21:09;;;;;;;21.53;8.30;;;;;;;4.12;49.57;99696.43;124946;1098;104195;-75
2023/03/06 04:23:41;;;;;;;18.73;8.13;;;;;;;4.13;49.57;99702.53;124441;1101;102015;-75
2023/03/06 04:26:12;;;;;;;20.80;8.07;;;;;;;4.15;49.77;99706.09;124482;1102;104179;-75
2023/03/06 04:28:43;;;;;;;21.70;7.90;;;;;;;4.14;49.85;99701.70;124487;1099;104271;-76
2023/03/06 04:31:15;;;;;;;22.40;8.10;;;;;;;4.15;49.55;99703.48;124517;1102;102262;-76
2023/03/06 04:33:47;;;;;;;20.30;8.00;;;;;;;4.17;49.23;99699.25;124508;1102;103113;-75
2023/03/06 04:36:27;;;;;;;20.80;8.47;;;;;;;4.18;49.54;99693.25;124532;1099;104185;-75
2023/03/06 04:39:00;;;;;;;21.00;7.80;;;;;;;4.17;49.24;99701.84;124898;1099;104230;-76
2023/03/06 04:41:32;;;;;;;19.63;8.00;;;;;;;4.18;49.43;99703.64;125150;1099;104188;-76
2023/03/06 04:44:04;;;;;;;20.50;8.03;;;;;;;4.17;50.01;99722.62;124925;1099;101903;-75
2023/03/06 04:46:35;;;;;;;24.10;8.00;;;;;;;4.16;50.19;99720.86;124889;1099;104210;-75
2023/03/06 04:49:07;;;;;;;21.97;8.33;;;;;;;4.15;49.60;99724.27;124921;1099;101839;-75
2023/03/06 04:51:38;;;;;;;27.37;9.20;;;;;;;4.14;49.93;99725.06;124864;1099;104185;-75
2023/03/06 04:54:09;;;;;;;62.07;10.83;;;;;;;4.15;49.55;99719.06;124890;1099;104251;-75
2023/03/06 04:56:41;;;;;;;67.90;12.90;;;;;;;4.18;49.46;99726.13;125136;1099;101871;-75
2023/03/06 04:59:12;;;;;;;25.17;8.67;;;;;;;4.20;49.40;99727.97;124874;1099;104308;-75
2023/03/06 05:01:43;;;;;;;33.40;9.07;;;;;;;4.23;50.05;99724.64;124924;1098;102101;-75
2023/03/06 05:04:15;;;;;;;22.07;8.90;;;;;;;4.26;49.91;99727.38;125746;1099;104223;-75
2023/03/06 05:06:46;;;;;;;26.93;8.70;;;;;;;4.28;49.74;99731.81;124936;1099;104334;-75
2023/03/06 05:09:17;;;;;;;23.23;9.87;;;;;;;4.30;50.39;99730.20;124963;1099;104246;-75
2023/03/06 05:11:48;;;;;;;24.83;8.63;;;;;;;4.32;50.46;99733.75;125273;1099;104198;-75
2023/03/06 05:14:20;;;;;;;23.00;8.50;;;;;;;4.35;50.43;99742.50;124897;1099;104307;-75
2023/03/06 05:16:51;;;;;;;21.67;8.27;;;;;;;4.37;49.92;99748.69;124435;1099;101939;-75
2023/03/06 05:19:22;;;;;;;25.10;8.43;;;;;;;4.39;50.83;99747.04;124783;1099;102028;-75
2023/03/06 05:21:54;;;;;;;24.10;9.60;;;;;;;4.41;50.42;99751.50;124914;1099;104274;-75
2023/03/06 05:24:25;;;;;;;30.73;9.63;;;;;;;4.43;50.48;99752.45;124459;1099;102007;-75
2023/03/06 05:26:57;;;;;;;29.63;9.50;;;;;;;4.44;50.23;99759.45;124882;1099;102309;-75
2023/03/06 05:29:28;;;;;;;34.17;9.83;;;;;;;4.46;50.06;99752.61;124873;1099;104054;-75
2023/03/06 05:31:59;;;;;;;24.40;9.00;;;;;;;4.48;50.16;99763.95;124881;1099;102495;-75
2023/03/06 05:34:31;;;;;;;23.23;9.57;;;;;;;4.51;50.61;99765.81;124777;1099;101890;-75
2023/03/06 05:37:02;;;;;;;22.47;8.63;;;;;;;4.54;50.72;99765.09;124430;1102;104191;-75
2023/03/06 05:39:33;;;;;;;23.07;9.23;;;;;;;4.56;50.24;99769.52;124863;1098;104178;-75
2023/03/06 05:42:05;;;;;;;22.80;8.23;;;;;;;4.61;50.70;99767.14;125509;1098;104175;-75
2023/03/06 05:44:37;;;;;;;25.63;8.47;;;;;;;4.65;50.30;99769.08;124811;1099;104176;-75
2023/03/06 05:47:08;;;;;;;26.47;9.00;;;;;;;4.70;50.29;99782.30;124940;1099;101861;-75
2023/03/06 05:49:40;;;;;;;24.60;9.37;;;;;;;4.70;50.60;99785.77;124951;1099;104271;-76
2023/03/06 05:52:19;;;;;;;23.33;9.30;;;;;;;4.71;50.36;99781.48;124975;1099;104472;-75
2023/03/06 05:54:54;;;;;;;23.20;9.43;;;;;;;4.74;50.77;99784.23;124550;1102;102406;-75
2023/03/06 05:57:26;;;;;;;24.57;9.93;;;;;;;4.77;50.99;99784.34;124828;1099;104245;-75
2023/03/06 05:59:59;;;;;;;21.30;9.03;;;;;;;4.83;50.37;99785.55;124920;1099;104175;-75
2023/03/06 06:02:31;;;;;;;23.40;9.60;;;;;;;4.90;51.06;99786.72;124453;1102;104357;-75
2023/03/06 06:05:07;;;;;;;25.07;9.63;;;;;;;4.98;50.76;99785.36;124782;1099;101914;-75
2023/03/06 06:07:40;;;;;;;23.50;9.07;;;;;;;5.06;50.69;99788.31;124821;1099;101954;-75
2023/03/06 06:10:14;;;;;;;25.37;10.20;;;;;;;5.13;50.57;99799.91;124996;1099;104319;-76
2023/03/06 06:12:47;;;;;;;26.60;10.03;;;;;;;5.12;50.93;99803.32;124790;1098;104236;-76
2023/03/06 06:15:19;;;;;;;25.00;10.00;;;;;;;5.18;50.89;99808.80;124841;1098;104245;-74
2023/03/06 06:17:50;;;;;;;26.37;9.13;;;;;;;5.25;50.95;99812.56;124297;1099;104086;-77
2023/03/06 06:20:22;;;;;;;25.73;10.10;;;;;;;5.32;50.75;99804.23;124767;1099;104102;-75
2023/03/06 06:22:54;;;;;;;24.30;10.17;;;;;;;5.36;50.86;99812.25;124273;1102;101876;-74
2023/03/06 06:25:25;;;;;;;23.97;9.67;;;;;;;5.44;50.67;99816.89;124637;1099;104376;-73
2023/03/06 06:27:57;;;;;;;24.13;9.30;;;;;;;5.53;51.02;99812.11;124606;1099;104355;-74
2023/03/06 06:30:29;;;;;;;22.47;9.47;;;;;;;5.62;50.87;99822.05;124660;1099;104227;-74
2023/03/06 06:33:00;;;;;;;27.50;9.87;;;;;;;5.69;50.85;99822.39;124739;1099;104297;-77
2023/03/06 06:35:35;;;;;;;28.30;10.80;;;;;;;5.75;50.88;99824.38;124650;1099;104277;-76
2023/03/06 06:38:04;;;;;;;;;;;;;;;5.76;50.73;99827.06;124346;1099;101848;-76
2023/03/06 06:40:36;;;;;;;23.70;10.77;;;;;;;5.79;50.59;99831.48;124917;1098;104303;-78
2023/03/06 06:43:10;;;;;;;29.00;10.67;;;;;;;5.79;50.41;99830.61;124928;1099;102069;-80
2023/03/06 06:45:47;;;;;;;27.03;11.13;;;;;;;5.71;50.78;99828.55;124850;1099;104252;-77
2023/03/06 06:48:19;;;;;;;30.03;11.63;;;;;;;5.67;50.46;99824.05;124916;1098;104297;-75
2023/03/06 06:50:58;;;;;;;23.73;10.93;;;;;;;5.72;50.73;99826.85;124854;1099;104184;-76
2023/03/06 06:53:30;;;;;;;46.27;12.77;;;;;;;5.82;50.79;99830.74;124225;1099;104318;-76
2023/03/06 06:56:02;;;;;;;31.37;11.07;;;;;;;5.92;50.34;99839.03;124735;1099;104511;-78
2023/03/06 06:58:35;;;;;;;25.77;11.33;;;;;;;6.03;50.81;99842.13;125083;1099;104185;-77
2023/03/06 07:01:10;;;;;;;26.70;10.60;;;;;;;5.99;50.43;99842.81;124926;1099;101890;-76
2023/03/06 07:03:42;;;;;;;31.07;11.60;;;;;;;5.94;50.37;99841.70;125212;1099;104255;-76
2023/03/06 07:06:13;;;;;;;26.53;11.63;;;;;;;5.93;50.18;99842.52;124894;1099;102739;-76
2023/03/06 07:08:45;;;;;;;24.17;11.30;;;;;;;5.97;50.54;99847.08;124352;1099;101879;-77
2023/03/06 07:11:18;;;;;;;27.43;11.37;;;;;;;6.04;50.18;99843.02;124237;1102;104299;-75
2023/03/06 07:13:50;;;;;;;25.80;10.58;;;;;;;6.16;50.48;99848.75;124770;1099;104198;-76
2023/03/06 07:16:27;;;;;;;24.03;10.30;;;;;;;6.24;50.34;99852.56;124341;1099;104227;-75
2023/03/06 07:19:02;;;;;;;26.80;11.07;;;;;;;6.35;50.28;99855.63;124742;1099;104271;-76
2023/03/06 07:21:34;;;;;;;23.87;10.53;;;;;;;6.45;50.20;99849.98;124645;1099;102266;-75
2023/03/06 07:24:06;;;;;;;23.57;10.60;;;;;;;6.47;50.02;99845.72;124676;1099;104242;-74
2023/03/06 07:26:39;;;;;;;27.97;11.60;;;;;;;6.44;49.61;99842.11;124661;1099;102504;-75
2023/03/06 07:29:11;;;;;;;24.70;11.17;;;;;;;6.44;49.98;99853.41;124730;1099;102802;-74
2023/03/06 07:31:42;;;;;;;24.97;10.30;;;;;;;6.53;49.77;99847.70;124676;1099;102287;-76
2023/03/06 07:34:15;;;;;;;24.90;10.37;;;;;;;6.66;50.12;99857.78;124766;1099;104220;-75
2023/03/06 07:36:56;;;;;;;21.60;10.15;;;;;;;6.75;49.83;99852.07;124660;1099;104264;-76
2023/03/06 07:39:29;;;;;;;21.87;9.60;;;;;;;6.89;49.93;99857.84;124682;1099;104076;-76
2023/03/06 07:42:01;;;;;;;23.03;9.63;;;;;;;7.01;50.24;99855.73;125882;1098;104217;-76
2023/03/06 07:44:35;;;;;;;25.07;10.17;;;;;;;7.12;50.12;99857.84;124401;1102;103586;-75
2023/03/06 07:47:07;;;;;;;26.35;9.48;;;;;;;7.24;49.82;99857.45;124395;1099;104238;-75
2023/03/06 07:49:39;;;;;;;24.43;10.10;;;;;;;7.32;50.01;99858.63;124169;1102;104265;-76
2023/03/06 07:52:15;;;;;;;25.73;9.60;;;;;;;7.44;50.11;99863.44;124194;1099;104307;-75
2023/03/06 07:54:48;;;;;;;24.37;10.33;;;;;;;7.53;49.73;99864.67;124654;1099;101856;-76
2023/03/06 07:57:20;;;;;;;21.23;9.77;;;;;;;7.58;50.00;99863.96;124546;1099;104211;-76
2023/03/06 07:59:52;;;;;;;20.90;9.53;;;;;;;7.63;49.27;99857.18;124572;1099;104181;-76
2023/03/06 08:02:24;;;;;;;23.97;9.50;;;;;;;7.66;49.77;99857.30;124218;1099;104411;-75
2023/03/06 08:04:56;;;;;;;22.13;9.73;;;;;;;7.81;49.50;99854.38;124201;1102;104296;-75
2023/03/06 08:07:28;;;;;;;23.57;9.60;;;;;;;7.95;49.20;99855.75;124204;1099;104326;-74
2023/03/06 08:10:00;;;;;;;20.57;9.00;;;;;;;8.10;49.89;99858.00;124100;1100;103674;-72
2023/03/06 08:12:33;;;;;;;23.97;9.43;;;;;;;8.22;49.75;99863.66;124789;1099;104600;-73
2023/03/06 08:15:06;;;;;;;22.30;9.60;;;;;;;8.35;48.99;99861.47;124176;1099;104679;-73
2023/03/06 08:17:37;;;;;;;21.07;9.30;;;;;;;8.42;48.85;99863.47;124529;1099;104212;-74
2023/03/06 08:20:13;;;;;;;27.97;9.90;;;;;;;8.51;49.17;99861.20;124653;1099;104187;-73
2023/03/06 08:22:48;;;;;;;21.90;9.27;;;;;;;8.61;49.32;99859.77;124254;1099;104437;-73
2023/03/06 08:25:23;;;;;;;22.73;10.00;;;;;;;8.71;49.08;99855.73;124359;1099;104293;-76
2023/03/06 08:27:56;;;;;;;21.20;9.03;;;;;;;8.79;48.85;99855.16;124331;1099;104245;-76
2023/03/06 08:30:29;;;;;;;20.40;9.97;;;;;;;8.84;48.37;99857.92;124694;1099;102054;-73
2023/03/06 08:33:00;;;;;;;;;;;;;;;8.84;46.38;99854.42;124853;1099;101855;-74
2023/03/06 08:35:32;;;;;;;22.30;9.53;;;;;;;8.90;47.16;99854.63;124721;1098;104185;-74
2023/03/06 08:38:03;;;;;;;22.00;10.77;;;;;;;8.80;46.79;99858.64;124664;1099;104415;-73
2023/03/06 08:40:35;;;;;;;21.40;9.70;;;;;;;8.68;46.96;99853.01;124834;1099;104281;-75
2023/03/06 08:43:13;;;;;;;23.67;10.80;;;;;;;8.60;46.64;99848.44;124238;1099;103681;-76
2023/03/06 08:45:53;;;;;;;24.67;10.33;;;;;;;8.56;46.50;99854.39;124282;1102;104320;-73
2023/03/06 08:48:26;;;;;;;21.63;10.10;;;;;;;8.49;46.14;99836.70;124602;1099;104210;-75
2023/03/06 08:50:59;;;;;;;27.93;11.68;;;;;;;8.59;46.60;99851.00;124717;1099;104227;-74
2023/03/06 08:53:31;;;;;;;22.23;10.60;;;;;;;8.73;46.63;99854.08;124354;1099;104277;-75
2023/03/06 08:56:02;;;;;;;27.13;10.80;;;;;;;8.79;46.01;99860.38;125291;1099;101804;-74
2023/03/06 08:58:39;;;;;;;24.55;11.60;;;;;;;8.79;45.68;99854.27;124642;1098;104248;-72
2023/03/06 09:01:17;;;;;;;22.80;10.23;;;;;;;8.86;46.26;99857.97;124648;1099;104351;-74
2023/03/06 09:03:49;;;;;;;27.70;10.90;;;;;;;8.96;46.51;99867.87;124673;1099;104248;-73
2023/03/06 09:06:24;;;;;;;23.87;11.73;;;;;;;8.99;45.75;99863.64;124716;1099;101866;-75
2023/03/06 09:08:57;;;;;;;22.07;10.10;;;;;;;8.97;46.39;99852.22;124786;1099;104217;-75
2023/03/06 09:11:35;;;;;;;23.13;10.20;;;;;;;9.13;46.05;99871.94;124482;1099;102469;-75
2023/03/06 09:14:43;;;;;;;25.97;11.60;;;;;;;9.20;46.11;99867.77;124989;1099;104278;-76
2023/03/06 09:17:20;;;;;;;25.23;11.90;;;;;;;9.12;45.48;99858.80;124292;1099;104211;-75
2023/03/06 09:20:00;;;;;;;22.03;11.03;;;;;;;9.18;45.59;99862.48;124827;1099;104165;-74
2023/03/06 09:22:32;;;;;;;25.87;11.30;;;;;;;9.23;45.98;99875.72;124691;1099;104223;-73
2023/03/06 09:25:05;;;;;;;25.90;11.43;;;;;;;9.29;45.54;99867.17;124674;1099;102534;-73
2023/03/06 09:27:37;;;;;;;25.90;11.08;;;;;;;9.33;45.07;99869.03;124653;1099;102039;-73
2023/03/06 09:30:11;;;;;;;24.23;10.60;;;;;;;9.38;44.95;99861.31;124151;1099;103438;-74
2023/03/06 09:32:45;;;;;;;26.53;10.63;;;;;;;9.41;45.04;99867.55;124264;1099;104361;-73
2023/03/06 09:35:20;;;;;;;22.77;10.07;;;;;;;9.45;45.64;99869.41;124316;1099;104254;-74
2023/03/06 09:37:54;;;;;;;24.80;11.03;;;;;;;9.50;44.81;99869.54;124338;1099;102400;-73
2023/03/06 09:40:41;;;;;;;23.73;10.30;;;;;;;9.64;44.95;99867.33;124650;1099;118941;-74
2023/03/06 09:43:21;;;;;;;23.20;10.63;;;;;;;9.79;44.90;99869.52;124617;1099;104242;-72
2023/03/06 09:45:56;;;;;;;21.67;10.20;;;;;;;9.88;44.47;99872.41;124242;1099;102135;-73
2023/03/06 09:48:43;;;;;;;21.57;10.00;;;;;;;9.96;44.23;99867.38;124761;1099;101824;-72
2023/03/06 09:51:22;;;;;;;23.00;10.10;;;;;;;10.01;44.82;99866.64;124774;1098;104163;-73
2023/03/06 09:54:05;;;;;;;24.93;11.00;;;;;;;10.10;44.39;99872.97;124683;1099;102045;-71
2023/03/06 09:56:40;;;;;;;26.93;10.33;;;;;;;10.15;44.86;99866.15;124763;1099;102022;-73
2023/03/06 09:59:19;;;;;;;24.40;10.53;;;;;;;10.25;44.44;99868.16;124315;1099;104176;-74
2023/03/06 10:02:01;;;;;;;22.07;9.93;;;;;;;10.29;44.50;99872.64;125020;1099;104089;-76
2023/03/06 10:04:50;;;;;;;24.40;10.77;;;;;;;10.31;44.20;99863.07;125294;1099;104169;-77
2023/03/06 10:07:25;;;;;;;21.43;10.53;;;;;;;10.32;44.52;99867.48;125332;1102;102172;-73
2023/03/06 10:10:00;;;;;;;21.43;10.63;;;;;;;10.32;44.47;99863.98;125148;1099;104175;-72
2023/03/06 10:12:44;;;;;;;22.13;9.83;;;;;;;10.39;44.52;99866.84;124526;1099;104209;-74
2023/03/06 10:15:22;;;;;;;21.80;11.30;;;;;;;10.31;43.89;99860.45;124776;1099;104223;-74
2023/03/06 10:18:01;;;;;;;24.07;10.17;;;;;;;10.35;43.47;99861.47;124911;1099;104214;-74
2023/03/06 10:20:43;;;;;;;22.13;10.17;;;;;;;10.28;43.99;99855.13;124350;1099;104265;-74
2023/03/06 10:23:43;;;;;;;21.40;9.97;;;;;;;10.33;43.68;99853.56;124920;1099;103795;-74
2023/03/06 10:26:19;;;;;;;20.97;9.90;;;;;;;10.32;43.16;99854.37;125252;1098;104268;-73
2023/03/06 10:29:03;;;;;;;22.63;10.33;;;;;;;10.18;42.52;99854.00;125036;1099;104246;-76
2023/03/06 10:31:38;;;;;;;28.87;11.93;;;;;;;10.18;42.99;99856.63;125079;1099;104243;-76
2023/03/06 10:34:24;;;;;;;21.33;10.17;;;;;;;10.28;43.24;99847.25;124764;1097;104160;-76
2023/03/06 10:36:58;;;;;;;22.00;10.27;;;;;;;10.31;42.90;99849.95;125399;1099;104473;-77
2023/03/06 10:39:31;;;;;;;21.90;10.85;;;;;;;10.33;43.37;99843.08;124661;1102;101938;-77
2023/03/06 10:42:08;;;;;;;21.65;10.05;;;;;;;10.36;43.25;99835.29;125203;1099;110923;-78
2023/03/06 10:44:43;;;;;;;22.87;10.43;;;;;;;10.42;43.41;99842.41;124628;1102;101817;-76
2023/03/06 10:47:39;;;;;;;24.17;10.73;;;;;;;10.47;42.70;99843.44;124908;1099;102097;-74
2023/03/06 10:50:26;;;;;;;25.00;10.57;;;;;;;10.52;42.92;99836.56;124945;1098;102562;-75
2023/03/06 10:53:05;;;;;;;24.25;11.20;;;;;;;10.59;43.14;99837.59;125217;1099;104166;-77
2023/03/06 10:55:40;;;;;;;24.47;11.40;;;;;;;10.55;42.38;99834.02;124864;1099;102073;-74
2023/03/06 10:58:23;;;;;;;26.63;12.63;;;;;;;10.47;42.48;99825.08;124794;1099;103451;-74
2023/03/06 11:01:07;;;;;;;23.00;11.40;;;;;;;10.54;42.42;99819.11;124819;1099;104341;-75
2023/03/06 11:03:39;;;;;;;25.03;11.10;;;;;;;10.66;42.73;99826.41;124963;1099;101979;-75
2023/03/06 11:06:17;;;;;;;27.30;12.30;;;;;;;10.76;42.68;99820.52;124376;1099;101934;-73
2023/03/06 11:08:49;;;;;;;24.93;11.33;;;;;;;10.85;42.38;99811.11;124781;1099;104156;-74
2023/03/06 11:11:26;;;;;;;26.70;11.27;;;;;;;10.84;42.44;99807.58;124711;1098;104300;-73
2023/03/06 11:14:01;;;;;;;26.93;11.33;;;;;;;10.84;42.35;99811.95;124271;1099;102000;-75
2023/03/06 11:16:35;;;;;;;21.43;10.87;;;;;;;10.84;42.50;99814.58;124743;1099;102169;-74
2023/03/06 11:19:21;;;;;;;23.00;10.17;;;;;;;10.84;41.66;99809.33;124706;1099;104304;-75
2023/03/06 11:22:17;;;;;;;20.63;9.73;;;;;;;10.72;41.63;99810.81;124733;1099;102415;-74
2023/03/06 11:24:53;;;;;;;22.60;10.67;;;;;;;10.73;42.20;99809.95;124574;1099;104255;-74
2023/03/06 11:27:33;;;;;;;18.30;8.70;;;;;;;10.72;41.55;99805.57;124722;1099;102040;-74
2023/03/06 11:30:16;;;;;;;18.30;8.57;;;;;;;10.67;42.15;99796.67;124654;1099;104162;-73
2023/03/06 11:32:58;;;;;;;21.07;9.03;;;;;;;10.59;41.48;99798.23;124828;1099;102608;-77
2023/03/06 11:35:34;;;;;;;20.20;8.83;;;;;;;10.60;41.31;99800.90;124609;1099;102286;-71
2023/03/06 11:38:13;;;;;;;18.83;7.70;;;;;;;10.65;41.60;99790.52;124641;1098;104242;-71
2023/03/06 11:40:55;;;;;;;20.00;8.03;;;;;;;10.69;41.42;99799.34;124496;1099;104311;-72
2023/03/06 11:43:39;;;;;;;19.00;8.70;;;;;;;10.66;41.26;99792.30;125071;1099;107076;-73